Time;durP1;ratioP1;P1;durP2;ratioP2;P2;SDS_P1;SDS_P2;PMS_P1;PMS_P2;Temp;Humidity;BMP_temperature;BMP_pressure;BME280_temperature;BME280_humidity;BME280_pressure;Samples;Min_cycle;Max_cycle;Signal;HPM_P1;HPM_P2
2022/12/11 00:02:03;;;;;;;21.38;10.32;;;-1.40;99.90;;;;;;5031835;28;20041;-69
2022/12/11 00:04:29;;;;;;;22.48;9.93;;;-1.30;99.90;;;;;;5019427;28;20070;-69
2022/12/11 00:06:56;;;;;;;25.05;9.73;;;-1.30;99.90;;;;;;5083221;28;20074;-69
2022/12/11 00:09:22;;;;;;;22.90;10.00;;;-1.30;99.90;;;;;;5094627;27;20043;-69
2022/12/11 00:11:48;;;;;;;19.05;8.40;;;-1.30;99.90;;;;;;5041631;28;20107;-69
2022/12/11 00:14:14;;;;;;;22.70;8.98;;;-1.30;99.90;;;;;;5029343;28;20088;-70
2022/12/11 00:16:41;;;;;;;24.80;10.32;;;-1.20;99.90;;;;;;5017845;28;20047;-69
2022/12/11 00:19:07;;;;;;;19.75;9.43;;;-1.20;99.90;;;;;;5001794;28;20061;-69
2022/12/11 00:21:33;;;;;;;17.80;8.68;;;-1.20;99.90;;;;;;5003196;28;20186;-69
2022/12/11 00:23:59;;;;;;;19.90;8.88;;;-1.10;99.90;;;;;;5016931;28;20042;-69
2022/12/11 00:26:26;;;;;;;20.40;9.50;;;-1.10;99.90;;;;;;5044264;28;20627;-69
2022/12/11 00:28:54;;;;;;;18.75;8.73;;;-1.10;99.90;;;;;;5055077;28;20053;-70
2022/12/11 00:31:20;;;;;;;18.30;7.53;;;-1.10;99.90;;;;;;5015779;28;20512;-70
2022/12/11 00:33:49;;;;;;;19.95;8.55;;;-1.10;99.90;;;;;;5004635;28;20054;-70
2022/12/11 00:36:18;;;;;;;20.15;9.02;;;-1.00;99.90;;;;;;5057084;28;20101;-70
2022/12/11 00:38:44;;;;;;;14.93;7.15;;;-1.00;99.90;;;;;;5015699;28;20057;-69
2022/12/11 00:41:11;;;;;;;19.27;7.95;;;-1.00;99.90;;;;;;5013478;28;20654;-70
2022/12/11 00:43:37;;;;;;;17.13;8.07;;;-0.90;99.90;;;;;;5015820;28;20060;-69
2022/12/11 00:46:03;;;;;;;18.65;8.88;;;-0.90;99.90;;;;;;5013496;28;20041;-70
2022/12/11 00:48:30;;;;;;;18.00;8.38;;;-0.90;99.90;;;;;;5064149;28;20046;-70
2022/12/11 00:50:55;;;;;;;16.60;7.18;;;-0.80;99.90;;;;;;5014912;28;20401;-69
2022/12/11 00:53:21;;;;;;;20.80;9.05;;;-0.80;99.90;;;;;;5014934;28;20038;-70
2022/12/11 00:55:47;;;;;;;16.55;8.07;;;-0.80;99.90;;;;;;5013224;28;20138;-69
2022/12/11 00:58:13;;;;;;;16.88;8.15;;;-0.80;99.90;;;;;;5008045;28;20042;-70
2022/12/11 01:00:40;;;;;;;18.83;7.75;;;-0.80;99.90;;;;;;5011245;28;20185;-70
2022/12/11 01:03:07;;;;;;;21.88;9.25;;;-0.80;99.90;;;;;;5009993;28;20570;-69
2022/12/11 01:05:33;;;;;;;21.17;9.13;;;-0.80;99.90;;;;;;4999870;28;20110;-69
2022/12/11 01:07:59;;;;;;;18.67;8.70;;;-0.70;99.90;;;;;;5010425;28;20382;-69
2022/12/11 01:10:25;;;;;;;20.23;8.52;;;-0.80;99.90;;;;;;5005553;28;20045;-70
2022/12/11 01:12:56;;;;;;;18.30;8.00;;;-0.70;99.90;;;;;;5014782;28;20054;-69
2022/12/11 01:15:28;;;;;;;16.23;8.30;;;-0.70;99.90;;;;;;5014162;28;20101;-68
2022/12/11 01:17:54;;;;;;;16.48;8.23;;;-0.70;99.90;;;;;;5018546;28;20042;-69
2022/12/11 01:20:22;;;;;;;19.10;8.13;;;-0.70;99.90;;;;;;5015357;28;20114;-69
2022/12/11 01:22:47;;;;;;;19.55;8.52;;;-0.70;99.90;;;;;;5016413;28;20049;-69
2022/12/11 01:25:13;;;;;;;15.75;7.55;;;-0.70;99.90;;;;;;5001979;28;20050;-70
2022/12/11 01:27:39;;;;;;;18.10;8.27;;;-0.70;99.90;;;;;;5007787;28;20091;-70
2022/12/11 01:30:07;;;;;;;16.42;7.28;;;-0.70;99.90;;;;;;4995070;28;20081;-69
2022/12/11 01:32:34;;;;;;;20.08;8.05;;;-0.70;99.90;;;;;;5014717;28;20058;-70
2022/12/11 01:35:03;;;;;;;17.17;8.23;;;-0.70;99.90;;;;;;5015492;28;20042;-70
2022/12/11 01:37:29;;;;;;;18.80;8.63;;;-0.70;99.90;;;;;;5009548;28;20050;-70
2022/12/11 01:39:55;;;;;;;16.38;6.85;;;-0.70;99.90;;;;;;5014517;28;20049;-69
2022/12/11 01:42:21;;;;;;;19.13;8.00;;;-0.70;99.90;;;;;;5062535;28;20565;-69
2022/12/11 01:44:46;;;;;;;19.58;8.27;;;-0.70;99.90;;;;;;5014069;28;20049;-70
2022/12/11 01:47:12;;;;;;;17.80;7.68;;;-0.70;99.90;;;;;;5020999;28;20058;-69
2022/12/11 01:49:40;;;;;;;20.98;8.80;;;-0.60;99.90;;;;;;5033088;28;20052;-70
2022/12/11 01:52:15;;;;;;;19.27;8.15;;;-0.60;99.90;;;;;;5000328;28;20099;-69
2022/12/11 01:54:42;;;;;;;20.85;9.90;;;-0.60;99.90;;;;;;5014217;28;20038;-69
2022/12/11 01:57:10;;;;;;;18.75;7.80;;;-0.60;99.90;;;;;;5006663;28;20046;-70
2022/12/11 01:59:38;;;;;;;20.17;8.05;;;-0.60;99.90;;;;;;5015594;28;20137;-69
2022/12/11 02:02:16;;;;;;;21.48;8.52;;;-0.60;99.90;;;;;;5053772;28;20050;-69
2022/12/11 02:04:44;;;;;;;18.33;8.02;;;-0.60;99.90;;;;;;5011229;28;20054;-69
2022/12/11 02:07:10;;;;;;;17.17;7.53;;;-0.60;99.90;;;;;;5024052;28;20053;-69
2022/12/11 02:09:38;;;;;;;18.27;7.90;;;-0.50;99.90;;;;;;5013369;28;20046;-69
2022/12/11 02:12:25;;;;;;;16.60;7.57;;;-0.50;99.90;;;;;;5005864;28;20102;-69
2022/12/11 02:15:24;;;;;;;18.35;8.10;;;-0.50;99.90;;;;;;5023840;28;20043;-69
2022/12/11 02:18:14;;;;;;;19.75;7.88;;;-0.50;99.90;;;;;;5014946;28;20061;-69
2022/12/11 02:20:58;;;;;;;18.02;7.65;;;-0.50;99.90;;;;;;5012820;28;20061;-69
2022/12/11 02:23:42;;;;;;;17.17;8.18;;;-0.50;99.90;;;;;;4999601;28;20050;-69
2022/12/11 02:26:45;;;;;;;15.38;7.75;;;-0.50;99.90;;;;;;4992664;28;20046;-69
2022/12/11 02:29:20;;;;;;;20.05;8.88;;;-0.50;99.90;;;;;;5015539;28;20050;-69
2022/12/11 02:31:52;;;;;;;17.25;8.45;;;-0.50;99.90;;;;;;5050464;28;20122;-69
2022/12/11 02:34:21;;;;;;;19.15;8.10;;;-0.50;99.90;;;;;;5020449;28;20050;-69
2022/12/11 02:36:53;;;;;;;17.02;8.15;;;0.60;99.90;;;;;;5012222;28;20030;-69
2022/12/11 02:39:22;;;;;;;18.65;7.90;;;-0.50;99.90;;;;;;5005941;28;20051;-69
2022/12/11 02:41:50;;;;;;;15.23;7.28;;;-0.50;99.90;;;;;;5009308;28;20053;-69
2022/12/11 02:44:20;;;;;;;15.88;7.22;;;-0.50;99.90;;;;;;5117455;28;20051;-69
2022/12/11 02:46:46;;;;;;;19.45;9.18;;;-0.50;99.90;;;;;;5007212;28;20058;-69
2022/12/11 02:49:13;;;;;;;17.15;7.65;;;-0.50;99.90;;;;;;5012297;28;20114;-70
2022/12/11 02:51:41;;;;;;;17.38;7.45;;;-0.50;99.90;;;;;;5014308;28;20080;-69
2022/12/11 02:54:16;;;;;;;21.98;8.05;;;-0.50;99.90;;;;;;5013208;28;20053;-69
2022/12/11 02:56:49;;;;;;;17.40;7.63;;;-0.50;99.90;;;;;;5105185;28;20048;-69
2022/12/11 02:59:20;;;;;;;17.98;7.53;;;-0.40;99.90;;;;;;5074286;28;20158;-69
2022/12/11 03:01:46;;;;;;;20.75;8.73;;;-0.40;99.90;;;;;;5013458;28;20050;-69
2022/12/11 03:04:12;;;;;;;17.42;8.25;;;-0.40;99.90;;;;;;5014969;28;20516;-69
2022/12/11 03:06:49;;;;;;;18.42;8.25;;;-0.40;99.90;;;;;;5012079;28;20156;-69
2022/12/11 03:09:15;;;;;;;17.90;7.60;;;-0.40;99.90;;;;;;4996293;28;20061;-69
2022/12/11 03:11:40;;;;;;;17.67;8.00;;;-0.40;99.90;;;;;;5019039;28;20504;-70
2022/12/11 03:14:07;;;;;;;16.77;7.63;;;-0.40;99.90;;;;;;5013634;28;20053;-69
2022/12/11 03:16:41;;;;;;;21.42;8.77;;;-0.40;99.90;;;;;;4992547;28;20054;-69
2022/12/11 03:19:10;;;;;;;16.13;7.60;;;-0.30;99.90;;;;;;5009556;28;20054;-69
2022/12/11 03:21:49;;;;;;;17.15;7.28;;;-0.30;99.90;;;;;;5013659;28;20073;-69
2022/12/11 03:24:21;;;;;;;19.40;8.25;;;-0.30;99.90;;;;;;5017165;28;20054;-69
2022/12/11 03:26:54;;;;;;;19.25;8.40;;;-0.30;99.90;;;;;;5039819;28;20046;-69
2022/12/11 03:29:24;;;;;;;17.30;8.50;;;-0.20;99.90;;;;;;5011556;28;20065;-69
2022/12/11 03:31:58;;;;;;;16.92;8.25;;;-0.20;99.90;;;;;;5009373;28;20117;-69
2022/12/11 03:34:43;;;;;;;19.63;8.43;;;-0.20;99.90;;;;;;4995708;28;20430;-69
2022/12/11 03:37:12;;;;;;;18.08;7.72;;;-0.20;99.90;;;;;;5009875;28;20056;-69
2022/12/11 03:39:45;;;;;;;19.38;8.52;;;-0.10;99.90;;;;;;5036629;28;20095;-69
2022/12/11 03:42:13;;;;;;;16.33;6.97;;;-0.10;99.90;;;;;;5091113;28;20078;-69
2022/12/11 03:44:41;;;;;;;20.23;8.75;;;-0.10;99.90;;;;;;5104665;28;20394;-69
2022/12/11 03:47:08;;;;;;;17.95;8.60;;;-0.10;99.90;;;;;;5017030;28;20122;-69
2022/12/11 03:49:38;;;;;;;17.00;6.43;;;-0.10;99.90;;;;;;5061556;28;20634;-69
2022/12/11 03:52:06;;;;;;;15.75;7.18;;;-0.10;99.90;;;;;;5035264;28;20057;-69
2022/12/11 03:54:33;;;;;;;16.83;7.60;;;-0.10;99.90;;;;;;5036428;28;20124;-69
2022/12/11 03:57:01;;;;;;;19.38;8.43;;;0.00;99.90;;;;;;5028302;28;20049;-69
2022/12/11 03:59:27;;;;;;;16.60;8.32;;;0.00;99.90;;;;;;5015865;28;20034;-69
2022/12/11 04:01:53;;;;;;;16.13;7.97;;;0.00;99.90;;;;;;5009451;28;20122;-69
2022/12/11 04:04:19;;;;;;;16.88;8.50;;;0.00;99.90;;;;;;5006373;28;20125;-69
2022/12/11 04:06:45;;;;;;;20.92;8.68;;;0.00;99.90;;;;;;5017031;28;20386;-69
2022/12/11 04:09:10;;;;;;;20.17;7.57;;;0.10;99.90;;;;;;5018221;28;20057;-69
2022/12/11 04:11:37;;;;;;;14.50;7.55;;;0.10;99.90;;;;;;5010193;28;20043;-69
2022/12/11 04:16:52;;;;;;;18.60;7.78;;;0.10;99.90;;;;;;5076597;28;20403;-69
2022/12/11 04:24:57;;;;;;;21.05;8.57;;;0.00;99.90;;;;;;5048794;28;20636;-69
2022/12/11 04:30:13;;;;;;;19.83;7.63;;;0.10;99.90;;;;;;5012861;28;20058;-69
2022/12/11 04:32:38;;;;;;;17.52;7.13;;;0.10;99.90;;;;;;5053931;28;20050;-69
2022/12/11 04:35:06;;;;;;;18.33;8.45;;;0.00;99.90;;;;;;5003662;28;20089;-69
2022/12/11 04:37:32;;;;;;;18.83;8.50;;;0.10;99.90;;;;;;5005684;28;20106;-69
2022/12/11 04:39:58;;;;;;;22.30;8.32;;;0.10;99.90;;;;;;5015870;28;20073;-69
2022/12/11 04:42:24;;;;;;;18.20;9.05;;;0.10;99.90;;;;;;5015209;28;20034;-69
2022/12/11 04:44:49;;;;;;;23.63;9.48;;;0.10;99.90;;;;;;5014685;28;20057;-69
2022/12/11 04:47:15;;;;;;;21.20;8.70;;;0.10;99.90;;;;;;5015641;28;20046;-69
2022/12/11 04:49:41;;;;;;;20.58;9.10;;;0.10;99.90;;;;;;5013540;28;20099;-69
2022/12/11 04:52:07;;;;;;;20.58;8.85;;;0.10;99.90;;;;;;5016221;28;20050;-69
2022/12/11 04:54:33;;;;;;;21.75;9.13;;;0.10;99.90;;;;;;5013549;28;20054;-69
2022/12/11 04:56:59;;;;;;;18.73;9.65;;;0.00;99.90;;;;;;5024039;28;20054;-69
2022/12/11 04:59:25;;;;;;;20.92;9.35;;;0.00;99.90;;;;;;5103543;28;20049;-69
2022/12/11 05:01:50;;;;;;;23.38;9.38;;;0.00;99.90;;;;;;5015061;28;20049;-69
2022/12/11 05:04:16;;;;;;;20.83;8.30;;;0.00;99.90;;;;;;5008675;28;20095;-69
2022/12/11 05:06:42;;;;;;;20.92;8.93;;;0.00;99.90;;;;;;5096199;28;20069;-69
2022/12/11 05:09:11;;;;;;;22.27;8.15;;;-0.10;99.90;;;;;;5031967;28;20050;-69
2022/12/11 05:11:37;;;;;;;22.60;8.45;;;-0.10;99.90;;;;;;5012919;28;20524;-69
2022/12/11 05:14:03;;;;;;;18.75;8.20;;;-0.10;99.90;;;;;;5097894;28;20054;-69
2022/12/11 05:16:29;;;;;;;22.20;9.55;;;-0.20;99.90;;;;;;5083588;28;20043;-69
2022/12/11 05:18:55;;;;;;;19.85;8.77;;;-0.20;99.90;;;;;;5108719;28;20040;-69
2022/12/11 05:21:20;;;;;;;22.67;9.38;;;-0.10;99.90;;;;;;5050228;28;20058;-69
2022/12/11 05:23:46;;;;;;;21.40;10.23;;;-0.10;99.90;;;;;;5009674;28;20048;-70
2022/12/11 05:26:16;;;;;;;19.58;8.50;;;-0.10;99.90;;;;;;5004270;28;20607;-70
2022/12/11 05:28:42;;;;;;;16.60;7.55;;;-0.10;99.90;;;;;;5013687;28;20065;-69
2022/12/11 05:31:13;;;;;;;19.63;8.82;;;-0.20;99.90;;;;;;4995641;28;20055;-69
2022/12/11 05:33:38;;;;;;;23.77;9.02;;;-0.20;99.90;;;;;;4999211;28;20050;-69
2022/12/11 05:36:05;;;;;;;18.60;8.23;;;-0.20;99.90;;;;;;4997972;28;20132;-69
2022/12/11 05:38:31;;;;;;;19.52;8.80;;;-0.20;99.90;;;;;;5016734;28;20049;-69
2022/12/11 05:41:06;;;;;;;18.02;8.57;;;-0.20;99.90;;;;;;5016586;28;20051;-69
2022/12/11 05:43:34;;;;;;;20.23;8.37;;;-0.10;99.90;;;;;;5038113;28;20061;-69
2022/12/11 05:46:14;;;;;;;17.10;7.95;;;-0.10;99.90;;;;;;5030267;28;20054;-69
2022/12/11 05:48:41;;;;;;;19.67;7.97;;;-0.10;99.90;;;;;;5033905;28;20054;-69
2022/12/11 05:51:08;;;;;;;16.10;8.18;;;-0.10;99.90;;;;;;4996869;28;20068;-69
2022/12/11 05:53:36;;;;;;;19.42;8.00;;;-0.10;99.90;;;;;;4995009;28;20054;-69
2022/12/11 05:56:07;;;;;;;18.30;7.85;;;-0.10;99.90;;;;;;5051744;28;20097;-69
2022/12/11 05:58:36;;;;;;;16.48;7.50;;;0.00;99.90;;;;;;5068432;28;20050;-69
2022/12/11 06:01:06;;;;;;;17.80;7.13;;;0.00;99.90;;;;;;5016229;28;20038;-69
2022/12/11 06:03:32;;;;;;;21.83;8.40;;;0.00;99.90;;;;;;5013247;28;20054;-69
2022/12/11 06:06:01;;;;;;;18.00;8.30;;;0.00;99.90;;;;;;5013688;28;20046;-69
2022/12/11 06:08:28;;;;;;;19.17;8.40;;;0.10;99.90;;;;;;4996001;28;20058;-69
2022/12/11 06:10:53;;;;;;;17.30;7.20;;;0.10;99.90;;;;;;5011451;28;20085;-70
2022/12/11 06:13:19;;;;;;;16.45;7.40;;;0.10;99.90;;;;;;5025881;28;20107;-68
2022/12/11 06:15:45;;;;;;;18.42;8.27;;;0.20;99.90;;;;;;5019052;28;20053;-69
2022/12/11 06:18:10;;;;;;;19.70;7.63;;;0.10;99.90;;;;;;4998463;28;20042;-69
2022/12/11 06:20:36;;;;;;;21.05;8.95;;;0.10;99.90;;;;;;5085201;28;20086;-70
2022/12/11 06:23:02;;;;;;;20.77;7.95;;;0.10;99.90;;;;;;5046134;28;20251;-70
2022/12/11 06:25:29;;;;;;;17.17;8.15;;;0.20;99.90;;;;;;5037246;28;20134;-69
2022/12/11 06:27:54;;;;;;;17.58;8.52;;;0.20;99.90;;;;;;5107131;28;20054;-69
2022/12/11 06:30:20;;;;;;;19.27;9.18;;;0.10;99.90;;;;;;5044145;28;20413;-69
2022/12/11 06:32:46;;;;;;;18.35;8.95;;;0.10;99.90;;;;;;5087190;28;20051;-69
2022/12/11 06:35:12;;;;;;;19.23;8.75;;;0.10;99.90;;;;;;5061119;28;20493;-70
2022/12/11 06:37:39;;;;;;;21.38;9.07;;;0.20;99.90;;;;;;4999268;28;20042;-69
2022/12/11 06:40:06;;;;;;;22.45;10.13;;;0.20;99.90;;;;;;5015260;28;20054;-69
2022/12/11 06:42:31;;;;;;;22.80;9.50;;;0.20;99.90;;;;;;5048895;28;20045;-69
2022/12/11 06:44:58;;;;;;;18.90;8.00;;;0.10;99.90;;;;;;5012399;28;20053;-70
2022/12/11 06:47:26;;;;;;;20.58;8.55;;;0.20;99.90;;;;;;5012433;28;20069;-69
2022/12/11 06:49:52;;;;;;;23.40;9.80;;;0.10;99.90;;;;;;5092018;28;20050;-69
2022/12/11 06:52:18;;;;;;;19.50;8.35;;;0.70;99.90;;;;;;5020355;28;20093;-70
2022/12/11 06:54:44;;;;;;;19.10;9.07;;;0.10;99.90;;;;;;5006790;28;20051;-69
2022/12/11 06:57:10;;;;;;;19.60;8.93;;;0.10;99.90;;;;;;5011649;28;20525;-69
2022/12/11 06:59:36;;;;;;;19.60;8.15;;;0.00;99.90;;;;;;5012578;28;20057;-69
2022/12/11 07:02:03;;;;;;;17.63;8.30;;;0.10;99.90;;;;;;5013893;28;20106;-69
2022/12/11 07:04:29;;;;;;;20.48;9.18;;;0.10;99.90;;;;;;5013617;28;20046;-69
2022/12/11 07:06:56;;;;;;;19.10;8.80;;;0.10;99.90;;;;;;5081199;28;20050;-69
2022/12/11 07:09:22;;;;;;;18.27;8.40;;;0.10;99.90;;;;;;5089308;28;20129;-69
2022/12/11 07:11:51;;;;;;;24.05;9.25;;;0.80;99.90;;;;;;5012318;28;20050;-69
2022/12/11 07:14:18;;;;;;;18.05;8.43;;;0.10;99.90;;;;;;5001265;28;20085;-69
2022/12/11 07:16:44;;;;;;;20.20;8.05;;;0.20;99.90;;;;;;5008235;28;20038;-69
2022/12/11 07:19:09;;;;;;;21.60;9.25;;;0.20;99.90;;;;;;5012345;28;20682;-70
2022/12/11 07:21:35;;;;;;;22.50;9.48;;;0.20;99.90;;;;;;5071788;28;20474;-69
2022/12/11 07:24:02;;;;;;;24.98;10.52;;;0.20;99.90;;;;;;5031337;28;20069;-70
2022/12/11 07:26:27;;;;;;;22.98;9.07;;;0.20;99.90;;;;;;5039937;28;20121;-69
2022/12/11 07:28:56;;;;;;;21.60;9.70;;;0.30;99.90;;;;;;5018545;28;20581;-69
2022/12/11 07:31:23;;;;;;;20.90;8.93;;;0.50;99.90;;;;;;5010664;28;20051;-69
2022/12/11 07:34:00;;;;;;;20.67;9.02;;;0.30;99.90;;;;;;5014433;28;20057;-70
2022/12/11 07:36:27;;;;;;;18.77;9.10;;;0.30;99.90;;;;;;5027442;28;20061;-70
2022/12/11 07:38:53;;;;;;;22.02;9.50;;;0.30;99.90;;;;;;5068497;28;20118;-70
2022/12/11 07:41:19;;;;;;;17.88;8.75;;;0.30;99.90;;;;;;5004980;28;20092;-70
2022/12/11 07:43:45;;;;;;;21.63;9.18;;;0.30;99.90;;;;;;4992186;28;20494;-69
2022/12/11 07:46:14;;;;;;;23.02;9.15;;;0.30;99.90;;;;;;5032189;28;20046;-70
2022/12/11 07:48:42;;;;;;;21.50;8.27;;;0.30;99.90;;;;;;4997944;28;20557;-70
2022/12/11 07:51:14;;;;;;;21.80;10.27;;;0.30;99.90;;;;;;5013516;28;20505;-69
2022/12/11 07:53:44;;;;;;;21.23;8.20;;;0.30;99.90;;;;;;5024634;28;20064;-70
2022/12/11 07:56:10;;;;;;;18.15;8.70;;;0.30;99.90;;;;;;5122244;28;20111;-70
2022/12/11 07:58:37;;;;;;;17.25;8.48;;;0.30;99.90;;;;;;5027351;28;20073;-69
2022/12/11 08:01:04;;;;;;;22.60;9.57;;;0.40;99.90;;;;;;4993760;28;20055;-69
2022/12/11 08:03:30;;;;;;;22.45;10.32;;;0.40;99.90;;;;;;5032772;28;20046;-69
2022/12/11 08:05:56;;;;;;;21.70;9.80;;;0.40;99.90;;;;;;5015950;28;20045;-70
2022/12/11 08:08:22;;;;;;;23.33;9.60;;;0.40;99.90;;;;;;5002649;28;20049;-69
2022/12/11 08:10:47;;;;;;;21.08;9.05;;;0.30;99.90;;;;;;5031167;28;20065;-69
2022/12/11 08:13:14;;;;;;;19.67;8.77;;;0.30;99.90;;;;;;5020795;28;20042;-70
2022/12/11 08:15:39;;;;;;;19.50;8.75;;;0.30;99.90;;;;;;5041345;28;20050;-70
2022/12/11 08:18:05;;;;;;;19.92;9.38;;;0.30;99.90;;;;;;4996690;28;20088;-69
2022/12/11 08:20:31;;;;;;;24.45;9.23;;;0.30;99.90;;;;;;5008991;28;20042;-69
2022/12/11 08:22:56;;;;;;;21.95;9.68;;;0.30;99.90;;;;;;5029126;28;20046;-70
2022/12/11 08:25:22;;;;;;;15.90;7.93;;;0.30;99.90;;;;;;5007995;28;20042;-69
2022/12/11 08:27:48;;;;;;;21.45;10.23;;;0.30;99.90;;;;;;5006880;28;20058;-69
2022/12/11 08:30:14;;;;;;;23.48;9.40;;;0.30;99.90;;;;;;4996202;28;20082;-69
2022/12/11 08:32:40;;;;;;;18.08;8.40;;;0.30;99.90;;;;;;4994625;28;20099;-70
2022/12/11 08:35:06;;;;;;;20.83;8.43;;;0.30;99.90;;;;;;5015361;28;20069;-70
2022/12/11 08:37:33;;;;;;;17.73;8.60;;;0.30;99.90;;;;;;5069329;28;20047;-70
2022/12/11 08:39:59;;;;;;;19.33;8.65;;;0.30;99.90;;;;;;5046352;28;20625;-70
2022/12/11 08:42:25;;;;;;;18.10;8.70;;;0.30;99.90;;;;;;5026422;28;20085;-70
2022/12/11 08:44:50;;;;;;;21.20;9.35;;;0.30;99.90;;;;;;5043528;28;20054;-70
2022/12/11 08:47:16;;;;;;;21.10;9.05;;;0.30;99.90;;;;;;4995490;28;20399;-70
2022/12/11 08:49:42;;;;;;;17.17;8.25;;;0.30;99.90;;;;;;5014896;28;20042;-70
2022/12/11 08:52:08;;;;;;;18.60;7.97;;;0.30;99.90;;;;;;4996160;28;20532;-70
2022/12/11 08:54:36;;;;;;;20.33;9.00;;;0.30;99.90;;;;;;4977603;28;20057;-70
2022/12/11 08:57:01;;;;;;;18.45;9.20;;;0.30;99.90;;;;;;5066843;28;20046;-70
2022/12/11 08:59:27;;;;;;;19.88;9.38;;;0.30;99.90;;;;;;4988017;28;20053;-70
2022/12/11 09:01:54;;;;;;;20.88;9.13;;;0.30;99.90;;;;;;5004617;28;20071;-69
2022/12/11 09:04:19;;;;;;;23.52;9.43;;;0.40;99.90;;;;;;5019538;28;20053;-69
2022/12/11 09:06:45;;;;;;;18.13;8.38;;;0.40;99.90;;;;;;5001977;28;20050;-70
2022/12/11 09:09:11;;;;;;;21.08;9.57;;;0.40;99.90;;;;;;5014921;28;20058;-70
2022/12/11 09:11:37;;;;;;;20.23;8.30;;;0.40;99.90;;;;;;5002837;28;20050;-69
2022/12/11 09:14:04;;;;;;;20.38;10.75;;;0.40;99.90;;;;;;4999190;28;20068;-69
2022/12/11 09:16:30;;;;;;;23.83;10.65;;;0.40;99.90;;;;;;5037327;28;20423;-69
2022/12/11 09:18:57;;;;;;;20.20;9.05;;;0.40;99.90;;;;;;5023603;28;20054;-69
2022/12/11 09:21:28;;;;;;;18.30;8.75;;;0.50;99.90;;;;;;4980239;28;20074;-68
2022/12/11 09:23:57;;;;;;;18.83;7.95;;;0.50;99.90;;;;;;4994523;28;20049;-69
2022/12/11 09:26:23;;;;;;;17.70;8.30;;;0.40;99.90;;;;;;5049617;28;20043;-70
2022/12/11 09:28:52;;;;;;;17.38;8.27;;;0.50;99.90;;;;;;5029609;28;20050;-70
2022/12/11 09:31:24;;;;;;;19.63;9.27;;;0.50;99.90;;;;;;5014723;28;20118;-70
2022/12/11 09:33:53;;;;;;;19.20;8.93;;;0.50;99.90;;;;;;5014533;28;20056;-69
2022/12/11 09:36:18;;;;;;;18.77;9.18;;;0.50;99.90;;;;;;5013102;28;20041;-70
2022/12/11 09:38:44;;;;;;;18.95;8.25;;;0.50;99.90;;;;;;4997426;28;20046;-69
2022/12/11 09:41:31;;;;;;;20.25;9.23;;;0.50;99.90;;;;;;5002570;28;20042;-70
2022/12/11 09:44:18;;;;;;;17.95;8.50;;;0.50;99.90;;;;;;5001833;28;20050;-70
2022/12/11 09:46:44;;;;;;;19.38;8.55;;;0.50;99.90;;;;;;4994241;28;20055;-69
2022/12/11 09:49:21;;;;;;;19.73;9.05;;;0.50;99.90;;;;;;4979597;28;20041;-70
2022/12/11 09:51:57;;;;;;;20.70;9.23;;;0.60;99.90;;;;;;5004393;28;20054;-70
2022/12/11 09:54:22;;;;;;;20.03;9.17;;;0.60;99.90;;;;;;5025707;28;20078;-70
2022/12/11 09:56:57;;;;;;;19.23;8.95;;;0.60;99.90;;;;;;4994442;28;20061;-70
2022/12/11 09:59:42;;;;;;;19.73;9.35;;;0.60;99.90;;;;;;5014850;28;20513;-69
2022/12/11 10:02:29;;;;;;;18.40;9.20;;;0.60;99.90;;;;;;4994079;28;20057;-70
2022/12/11 10:05:16;;;;;;;20.38;9.18;;;0.60;99.90;;;;;;5018688;28;20053;-69
2022/12/11 10:07:59;;;;;;;17.67;8.98;;;0.60;99.90;;;;;;5002558;28;20049;-70
2022/12/11 10:10:37;;;;;;;19.45;9.75;;;0.60;99.90;;;;;;5000621;28;20082;-69
2022/12/11 10:13:30;;;;;;;18.70;8.80;;;0.60;99.90;;;;;;4999508;28;20037;-69
2022/12/11 10:16:09;;;;;;;18.27;8.82;;;0.60;99.90;;;;;;4992759;28;20208;-69
2022/12/11 10:18:36;;;;;;;17.45;9.10;;;0.60;99.90;;;;;;5026964;28;20084;-69
2022/12/11 10:21:02;;;;;;;19.08;9.00;;;0.60;99.90;;;;;;4995152;28;20030;-68
2022/12/11 10:23:47;;;;;;;20.00;9.13;;;0.70;99.90;;;;;;5025196;28;20042;-69
2022/12/11 10:26:18;;;;;;;15.90;8.75;;;0.60;99.90;;;;;;5020583;28;20046;-68
2022/12/11 10:28:44;;;;;;;20.15;8.60;;;0.70;99.90;;;;;;5005003;28;20122;-69
2022/12/11 10:31:26;;;;;;;18.50;8.60;;;1.30;99.90;;;;;;5064187;28;20054;-69
2022/12/11 10:34:28;;;;;;;15.65;8.18;;;0.70;99.90;;;;;;5079639;27;20075;-68
2022/12/11 10:36:54;;;;;;;20.73;9.38;;;0.70;99.90;;;;;;5006972;28;20049;-69
2022/12/11 10:39:21;;;;;;;19.58;9.40;;;0.70;99.90;;;;;;5006837;28;20230;-69
2022/12/11 10:41:52;;;;;;;19.13;9.20;;;0.80;99.90;;;;;;4997249;28;20057;-69
2022/12/11 10:44:22;;;;;;;16.20;9.25;;;0.70;99.90;;;;;;5041563;28;20041;-69
2022/12/11 10:47:04;;;;;;;17.23;7.95;;;0.70;99.90;;;;;;5028773;28;20069;-68
2022/12/11 10:49:33;;;;;;;18.48;11.00;;;0.70;99.90;;;;;;4990128;28;20050;-69
2022/12/11 10:52:00;;;;;;;19.77;10.00;;;0.70;99.90;;;;;;5013360;28;20050;-68
2022/12/11 10:54:31;;;;;;;20.08;9.57;;;0.70;99.90;;;;;;4976441;28;20050;-68
2022/12/11 10:56:59;;;;;;;20.30;9.10;;;0.70;99.90;;;;;;5001124;28;20050;-69
2022/12/11 10:59:48;;;;;;;16.38;8.82;;;0.70;99.90;;;;;;5008934;28;20026;-68
2022/12/11 11:02:23;;;;;;;20.00;8.80;;;0.70;99.90;;;;;;5031409;28;20110;-68
2022/12/11 11:04:50;;;;;;;18.02;8.77;;;0.70;99.90;;;;;;4997198;28;20138;-68
2022/12/11 11:07:29;;;;;;;16.80;8.80;;;0.70;99.90;;;;;;4993447;28;20046;-68
2022/12/11 11:10:10;;;;;;;19.77;9.20;;;0.70;99.90;;;;;;4984326;28;20038;-68
2022/12/11 11:12:39;;;;;;;18.85;9.13;;;0.80;99.90;;;;;;5043314;28;20510;-68
2022/12/11 11:15:10;;;;;;;17.58;8.90;;;0.80;99.90;;;;;;5104853;28;20395;-68
2022/12/11 11:17:51;;;;;;;17.70;9.52;;;0.70;99.90;;;;;;5022737;28;20099;-68
2022/12/11 11:20:19;;;;;;;22.83;10.52;;;0.80;99.90;;;;;;5038525;28;20106;-68
2022/12/11 11:22:56;;;;;;;24.48;9.77;;;0.80;99.90;;;;;;5116069;28;20047;-68
2022/12/11 11:25:28;;;;;;;20.10;9.55;;;0.80;99.90;;;;;;5116198;28;20040;-68
2022/12/11 11:28:01;;;;;;;17.23;9.00;;;0.80;99.90;;;;;;5116063;28;20046;-68
2022/12/11 11:30:34;;;;;;;19.42;9.90;;;0.80;99.90;;;;;;4999741;28;20478;-68
2022/12/11 11:33:11;;;;;;;17.60;8.50;;;0.80;99.90;;;;;;4992019;28;20139;-68
2022/12/11 11:35:37;;;;;;;18.80;8.20;;;0.80;99.90;;;;;;4993232;28;20065;-68
2022/12/11 11:38:21;;;;;;;18.08;8.50;;;0.80;99.90;;;;;;4992869;28;20050;-68
2022/12/11 11:40:52;;;;;;;15.70;8.35;;;1.20;99.90;;;;;;4991989;28;20050;-68
2022/12/11 11:43:47;;;;;;;17.40;9.00;;;0.80;99.90;;;;;;4994262;28;20054;-69
2022/12/11 11:46:18;;;;;;;19.80;8.40;;;1.10;99.90;;;;;;5023229;28;20049;-69
2022/12/11 11:49:17;;;;;;;18.38;8.18;;;0.80;99.90;;;;;;5069485;28;20060;-68
2022/12/11 11:52:02;;;;;;;15.77;7.70;;;0.80;99.90;;;;;;5022238;28;20435;-69
2022/12/11 11:54:36;;;;;;;16.98;8.68;;;0.90;99.90;;;;;;5017278;28;20083;-68
2022/12/11 11:57:15;;;;;;;16.27;8.63;;;0.90;99.90;;;;;;5032114;28;20057;-68
2022/12/11 11:59:49;;;;;;;16.67;8.05;;;0.90;99.90;;;;;;5031897;28;20057;-68
2022/12/11 12:02:17;;;;;;;17.60;7.80;;;0.90;99.90;;;;;;5052964;28;20049;-68
2022/12/11 12:04:48;;;;;;;17.65;7.70;;;0.90;99.90;;;;;;5094724;28;20042;-68
2022/12/11 12:07:38;;;;;;;19.00;9.23;;;0.90;99.90;;;;;;5012998;28;20185;-68
2022/12/11 12:10:22;;;;;;;18.60;8.85;;;0.90;99.90;;;;;;5018037;28;20050;-68
2022/12/11 12:12:53;;;;;;;17.02;8.13;;;0.90;99.90;;;;;;5014715;28;20042;-68
2022/12/11 12:15:55;;;;;;;16.35;7.75;;;0.90;99.90;;;;;;5011187;28;20042;-68
2022/12/11 12:18:59;;;;;;;19.55;8.98;;;0.90;99.90;;;;;;5030482;28;20054;-68
2022/12/11 12:21:35;;;;;;;15.80;7.63;;;0.90;99.90;;;;;;5034172;28;20054;-68
2022/12/11 12:24:25;;;;;;;18.73;8.98;;;0.80;99.90;;;;;;5041612;28;20111;-68
2022/12/11 12:27:36;;;;;;;18.00;9.20;;;0.80;99.90;;;;;;5026905;28;20068;-68
2022/12/11 12:30:10;;;;;;;18.55;9.00;;;0.80;99.90;;;;;;5020862;28;20088;-68
2022/12/11 12:33:03;;;;;;;17.65;8.40;;;0.80;99.90;;;;;;5041662;28;20092;-68
2022/12/11 12:35:36;;;;;;;19.70;8.52;;;0.90;99.90;;;;;;5099358;28;20060;-68
2022/12/11 12:38:09;;;;;;;17.73;9.18;;;0.80;99.90;;;;;;5119047;28;20055;-68
2022/12/11 12:41:12;;;;;;;22.17;9.52;;;0.90;99.90;;;;;;5110307;28;20049;-68
2022/12/11 12:44:07;;;;;;;17.83;9.70;;;0.90;99.90;;;;;;5037076;28;20052;-68
2022/12/11 12:46:49;;;;;;;15.38;8.65;;;0.80;99.90;;;;;;5037671;28;20371;-68
2022/12/11 12:49:24;;;;;;;19.25;9.00;;;0.90;99.90;;;;;;5033832;28;20400;-68
2022/12/11 12:51:50;;;;;;;18.63;9.10;;;0.90;99.90;;;;;;5035708;28;20278;-68
2022/12/11 12:54:19;;;;;;;21.13;10.32;;;0.90;99.90;;;;;;5033198;28;20045;-68
2022/12/11 12:56:46;;;;;;;17.83;8.65;;;0.90;99.90;;;;;;5036357;28;20049;-68
2022/12/11 12:59:23;;;;;;;18.48;8.73;;;0.90;99.90;;;;;;5019254;28;20153;-68
2022/12/11 13:01:53;;;;;;;20.60;9.80;;;0.90;99.90;;;;;;5014211;28;20083;-68
2022/12/11 13:04:47;;;;;;;20.73;9.55;;;1.10;99.90;;;;;;5009663;28;20043;-68
2022/12/11 13:07:26;;;;;;;21.92;9.48;;;0.90;99.90;;;;;;5019707;28;20058;-68
2022/12/11 13:10:06;;;;;;;18.58;8.57;;;0.90;99.90;;;;;;5009719;28;20146;-68
2022/12/11 13:12:52;;;;;;;19.88;9.40;;;1.00;99.90;;;;;;4995343;28;20394;-67